METAR Data
IDs: Format: Raw Decoded Include TAF

Data at: 1103 UTC 28 Sep 2021

KSGF 281052Z 17005KT 10SM CLR 16/14 A2997 RMK AO2 SLP138 T01560139